Latest Weather Observations for Melbourne (Olympic Park)

IDV60801

Issued at 11:31 pm EDT Tuesday 3 March 2015 (issued every 30 minutes, with the page automatically refreshed every 10 minutes)

About weather observations | Map of weather stations | Latest weather observations for VIC | Other Formats
Station Details ID: 086338 Name: MELBOURNE (OLYMPIC PARK) Lat: -37.83 Lon: 144.98 Height: 7.53 m
Data from the previous 72 hours. | See also: Recent months at Melbourne (Olympic Park)
Date/Time
EDT
Temp
°C
App
Temp
°C
Dew
Point
Rel
Hum
%
Delta-T
°C
Wind Press
QNH
hPa
Press
MSL
hPa
Rain
since 9 am
mm
Dir
 
Spd
km/h
Gust
km/h
Spd
kts
Gust
kts
03/11:30pm 16.3 17.0 12.1 76 2.3 CALM 0 6 0 3 1016.6 1016.6 0.0
03/11:00pm 17.1 16.9 11.8 71 2.9 S 4 11 2 6 1016.7 1016.7 0.0
03/10:30pm 17.6 16.7 11.4 67 3.4 SSE 7 15 4 8 1016.8 1016.8 0.0
03/10:00pm 17.9 16.1 10.8 63 3.8 SSE 11 17 6 9 1016.7 1016.7 0.0
03/09:30pm 18.5 17.1 10.8 61 4.2 S 9 19 5 10 1016.4 1016.4 0.0
03/09:00pm 18.7 17.2 12.0 65 3.7 SSW 11 20 6 11 1016.1 1016.1 0.0
03/08:30pm 19.0 17.1 11.8 63 4.0 S 13 24 7 13 1015.6 1015.6 0.0
03/08:00pm 19.3 17.7 11.6 61 4.2 S 11 20 6 11 1015.3 1015.3 0.0
03/07:30pm 20.0 18.8 11.5 58 4.7 S 9 19 5 10 1015.1 1015.1 0.0
03/07:00pm 20.9 18.7 10.7 52 5.6 SSW 13 20 7 11 1015.0 1015.0 0.0
03/06:30pm 21.6 19.8 11.0 51 5.8 SSW 11 20 6 11 1014.8 1014.8 0.0
03/06:00pm 21.7 19.9 10.8 50 6.0 SSW 11 17 6 9 1014.8 1014.8 0.0
03/05:30pm 21.9 20.1 10.7 49 6.2 SSW 11 20 6 11 1014.8 1014.8 0.0
03/05:00pm 22.4 20.9 10.5 47 6.5 SSW 9 15 5 8 1014.9 1014.9 0.0
03/04:30pm 22.4 21.3 12.1 52 5.8 SSW 9 17 5 9 1015.1 1015.1 0.0
03/04:00pm 21.4 19.4 11.4 53 5.5 SSW 13 20 7 11 1015.4 1015.4 0.0
03/03:30pm 20.9 18.4 11.0 53 5.4 S 15 24 8 13 1015.9 1015.9 0.0
03/03:00pm 21.1 19.2 11.7 55 5.2 SSW 13 26 7 14 1016.0 1016.0 0.0
03/02:30pm 21.7 21.0 13.3 59 4.8 SSW 9 22 5 12 1016.4 1016.4 0.0
03/02:00pm 20.2 17.9 11.9 59 4.6 SSW 15 20 8 11 1016.6 1016.6 0.0
03/01:30pm 20.6 19.3 13.8 65 3.9 SSW 13 24 7 13 1016.7 1016.7 0.0
03/01:00pm 20.1 17.6 12.3 61 4.4 S 17 28 9 15 1016.9 1016.9 0.0
03/12:30pm 20.4 18.1 13.1 63 4.2 S 17 24 9 13 1017.2 1017.2 0.0
03/12:00pm 20.2 19.0 12.7 62 4.2 S 11 20 6 11 1017.3 1017.3 0.0
03/11:30am 20.0 19.2 13.0 64 4.0 SSW 9 17 5 9 1017.6 1017.6 0.0
03/11:00am 20.2 19.7 13.9 67 3.6 SSW 9 15 5 8 1017.4 1017.4 0.0
03/10:30am 19.5 18.7 13.0 66 3.7 SSW 9 17 5 9 1017.2 1017.2 0.0
03/10:00am 19.3 18.7 12.3 64 3.9 SSW 7 17 4 9 1017.3 1017.3 0.0
03/09:30am 19.3 18.7 12.3 64 3.9 S 7 9 4 5 1017.3 1017.3 0.0
03/09:00am 19.0 18.6 12.3 65 3.7 SE 6 9 3 5 1016.9 1016.9 0.0
03/08:30am 18.5 17.9 12.3 67 3.4 SSE 7 11 4 6 1016.6 1016.6 0.0
03/08:00am 17.6 18.5 12.9 74 2.6 CALM 0 6 0 3 1016.5 1016.5 0.0
03/07:30am 17.1 17.9 12.4 74 2.6 CALM 0 0 0 0 1016.3 1016.3 0.0
03/07:00am 17.1 17.8 12.2 73 2.7 CALM 0 6 0 3 1016.0 1016.0 0.0
03/06:30am 17.7 17.8 11.5 67 3.4 SSE 2 7 1 4 1015.6 1015.6 0.0
03/06:00am 17.9 18.0 11.5 66 3.5 S 2 7 1 4 1015.4 1015.4 0.0
03/05:30am 18.1 17.9 11.9 67 3.4 SE 4 7 2 4 1015.2 1015.2 0.0
03/05:00am 18.1 17.9 11.9 67 3.4 SSE 4 9 2 5 1015.1 1015.1 0.0
03/04:30am 18.1 18.4 12.1 68 3.3 S 2 7 1 4 1015.3 1015.3 0.0
03/04:00am 18.1 18.4 12.3 69 3.2 SSE 2 6 1 3 1015.5 1015.5 0.0
03/03:30am 18.2 18.1 12.0 67 3.4 SSE 4 9 2 5 1015.3 1015.3 0.0
03/03:00am 18.0 19.0 13.3 74 2.6 CALM 0 7 0 4 1014.8 1014.8 0.0
03/02:30am 18.4 18.2 11.9 66 3.6 S 4 9 2 5 1014.8 1014.8 0.0
03/02:00am 18.3 17.6 12.1 67 3.4 SSW 7 11 4 6 1015.7 1015.7 0.0
03/01:30am 17.8 18.6 12.5 71 2.9 CALM 0 0 0 0 1015.7 1015.7 0.0
03/01:00am 17.6 18.4 12.5 72 2.8 CALM 0 0 0 0 1015.4 1015.4 0.0
03/12:30am 18.0 18.6 12.0 68 3.3 CALM 0 0 0 0 1015.5 1015.5 0.0
03/12:00am 18.4 18.5 11.5 64 3.8 WSW 2 7 1 4 1015.4 1015.4 0.0
 
Date/Time
EDT
Temp
°C
App
Temp
°C
Dew
Point
Rel
Hum
%
Delta-T
°C
Wind Press
QNH
hPa
Press
MSL
hPa
Rain
since 9 am
mm
Dir
 
Spd
km/h
Gust
km/h
Spd
kts
Gust
kts
02/11:30pm 18.9 18.5 11.2 61 4.2 S 4 11 2 6 1015.1 1015.1 0.0
02/11:00pm 19.1 18.4 11.4 61 4.2 SSE 6 11 3 6 1015.4 1015.4 0.0
02/10:30pm 19.4 18.5 11.2 59 4.5 SSE 7 13 4 7 1015.4 1015.4 0.0
02/10:00pm 19.4 19.3 10.9 58 4.6 S 2 7 1 4 1015.6 1015.6 0.0
02/09:30pm 19.7 20.0 10.9 57 4.8 CALM 0 6 0 3 1015.5 1015.5 0.0
02/09:00pm 20.0 20.0 11.0 56 4.9 SSE 2 7 1 4 1014.8 1014.8 0.0
02/08:30pm 20.0 20.2 10.4 54 5.2 CALM 0 7 0 4 1014.5 1014.5 0.0
02/08:00pm 20.2 19.2 10.3 53 5.3 SSE 6 11 3 6 1014.4 1014.4 0.0
02/07:30pm 20.4 19.0 10.8 54 5.2 S 9 15 5 8 1013.9 1013.9 0.0
02/07:00pm 20.8 19.4 10.9 53 5.4 SSW 9 15 5 8 1013.5 1013.5 0.0
02/06:30pm 21.1 19.4 9.7 48 6.1 SSW 9 13 5 7 1013.5 1013.5 0.0
02/06:00pm 21.3 19.6 9.9 48 6.1 SSW 9 19 5 10 1013.5 1013.5 0.0
02/05:30pm 22.3 20.7 10.1 46 6.6 SSW 9 17 5 9 1013.2 1013.2 0.0
02/05:00pm 21.9 19.9 10.1 47 6.4 SSW 11 19 6 10 1013.6 1013.6 0.0
02/04:30pm 21.9 19.3 9.4 45 6.7 SSW 13 24 7 13 1013.9 1013.9 0.0
02/04:00pm 22.0 19.6 10.2 47 6.4 SSW 13 20 7 11 1013.8 1013.8 0.0
02/03:30pm 22.4 21.1 9.9 45 6.8 SW 7 13 4 7 1013.9 1013.9 0.0
02/03:00pm 21.9 20.4 10.4 48 6.3 S 9 13 5 7 1014.5 1014.5 0.0
02/02:30pm 21.5 20.1 9.7 47 6.3 SSW 7 13 4 7 1015.5 1015.5 0.0
02/02:00pm 20.2 18.5 9.7 51 5.6 SSW 9 15 5 8 1015.4 1015.4 0.0
02/01:30pm 20.2 17.8 8.5 47 6.1 SSW 11 15 6 8 1015.9 1015.9 0.0
02/01:00pm 21.7 20.6 6.8 38 7.6 NW 2 9 1 5 1016.3 1016.3 0.0
02/12:30pm 20.3 18.3 7.0 42 6.8 NE 7 15 4 8 1016.7 1016.7 0.0
02/12:00pm 19.4 17.5 6.8 44 6.3 SE 6 9 3 5 1017.1 1017.1 0.0
02/11:30am 18.6 16.9 7.4 48 5.7 NNE 6 13 3 7 1017.7 1017.7 0.0
02/11:00am 17.7 14.9 6.9 49 5.4 NNE 11 19 6 10 1018.0 1018.0 0.0
02/10:30am 17.2 15.4 8.1 55 4.6 NE 7 15 4 8 1018.3 1018.3 0.0
02/10:00am 16.7 14.6 6.5 51 5.0 ENE 7 15 4 8 1018.7 1018.7 0.0
02/09:30am 16.3 14.5 7.0 54 4.6 ENE 6 17 3 9 1018.6 1018.6 0.0
02/09:00am 15.9 14.2 7.7 58 4.1 ENE 6 11 3 6 1018.6 1018.6 0.0
02/08:30am 14.7 13.6 8.6 67 3.1 NE 4 9 2 5 1018.6 1018.6 0.0
02/08:00am 12.0 12.1 10.2 89 0.9 CALM 0 0 0 0 1018.6 1018.6 0.0
02/07:30am 11.8 12.0 10.7 93 0.6 CALM 0 0 0 0 1018.1 1018.1 0.0
02/07:00am 11.9 12.1 10.6 92 0.7 CALM 0 0 0 0 1018.0 1018.0 0.0
02/06:30am 11.7 11.8 10.3 91 0.7 CALM 0 0 0 0 1018.1 1018.1 0.0
02/06:00am 12.3 12.5 10.4 88 1.0 CALM 0 0 0 0 1018.1 1018.1 0.0
02/05:30am 13.3 13.4 10.1 81 1.7 CALM 0 6 0 3 1017.8 1017.8 0.0
02/05:00am 13.8 13.3 9.5 75 2.2 ESE 2 7 1 4 1018.1 1018.1 0.0
02/04:30am 13.9 14.1 10.5 80 1.8 CALM 0 0 0 0 1018.0 1018.0 0.0
02/04:00am 13.7 13.8 10.1 79 1.9 CALM 0 6 0 3 1017.8 1017.8 0.0
02/03:30am 14.1 14.1 9.7 75 2.3 CALM 0 0 0 0 1018.0 1018.0 0.0
02/03:00am 14.9 14.9 9.7 71 2.7 CALM 0 0 0 0 1018.5 1018.5 0.0
02/02:30am 15.4 14.4 10.2 71 2.7 E 6 9 3 5 1018.4 1018.4 0.0
02/02:00am 15.9 14.8 10.0 68 3.1 SSE 6 9 3 5 1018.7 1018.7 0.0
02/01:30am 16.0 14.9 10.1 68 3.1 SSE 6 11 3 6 1018.4 1018.4 0.0
02/01:00am 15.7 15.0 10.2 70 2.9 SSE 4 9 2 5 1018.2 1018.2 0.0
02/12:30am 16.0 15.0 10.3 69 3.0 SSE 6 15 3 8 1017.8 1017.8 0.0
02/12:00am 16.4 14.8 10.3 67 3.2 SSE 9 17 5 9 1018.0 1018.0 0.0
 
Date/Time
EDT
Temp
°C
App
Temp
°C
Dew
Point
Rel
Hum
%
Delta-T
°C
Wind Press
QNH
hPa
Press
MSL
hPa
Rain
since 9 am
mm
Dir
 
Spd
km/h
Gust
km/h
Spd
kts
Gust
kts
01/11:30pm 16.6 15.5 10.5 67 3.2 SSE 7 13 4 7 1018.1 1018.1 0.0
01/11:00pm 16.7 14.9 10.8 68 3.1 SSE 11 19 6 10 1018.3 1018.3 0.0
01/10:30pm 16.6 14.4 10.7 68 3.1 SSE 13 20 7 11 1018.3 1018.3 0.0
01/10:00pm 16.9 15.1 11.0 68 3.2 SSE 11 17 6 9 1018.2 1018.2 0.0
01/09:30pm 17.0 15.2 10.8 67 3.3 SSE 11 19 6 10 1018.0 1018.0 0.0
01/09:00pm 17.6 16.3 11.4 67 3.4 SSE 9 19 5 10 1017.6 1017.6 0.0
01/08:30pm 17.5 15.9 11.5 68 3.3 S 11 17 6 9 1017.3 1017.3 0.0
01/08:00pm 17.8 15.8 11.4 66 3.5 S 13 24 7 13 1017.1 1017.1 0.0
01/07:30pm 18.0 16.3 11.1 64 3.7 SSW 11 20 6 11 1017.1 1017.1 0.0
01/07:00pm 18.4 16.3 11.0 62 4.0 S 13 26 7 14 1017.0 1017.0 0.0
01/06:30pm 19.0 17.3 11.1 60 4.3 SSW 11 24 6 13 1016.6 1016.6 0.0
01/06:00pm 19.1 16.5 11.9 63 4.0 S 17 28 9 15 1016.6 1016.6 0.0
01/05:30pm 19.6 17.4 10.9 57 4.7 S 13 32 7 17 1016.1 1016.1 0.0
01/05:00pm 19.8 16.7 10.2 54 5.2 S 17 28 9 15 1015.9 1015.9 0.0
01/04:30pm 20.4 17.8 10.8 54 5.2 S 15 30 8 16 1015.6 1015.6 0.0
01/04:00pm 20.3 17.4 11.0 55 5.1 S 17 28 9 15 1015.4 1015.4 0.0
01/03:30pm 19.7 16.5 9.9 53 5.2 S 17 32 9 17 1015.4 1015.4 0.0
01/03:00pm 19.7 16.9 11.2 58 4.7 S 17 33 9 18 1015.3 1015.3 0.0
01/02:30pm 20.0 17.8 12.0 60 4.5 S 15 30 8 16 1015.1 1015.1 0.0
01/02:00pm 19.9 17.3 11.9 60 4.4 SSW 17 33 9 18 1014.9 1014.9 0.0
01/01:30pm 20.2 17.3 11.1 56 5.0 SSW 17 26 9 14 1014.6 1014.6 0.0
01/01:00pm 19.7 16.7 10.7 56 4.9 S 17 32 9 17 1014.6 1014.6 0.0
01/12:30pm 19.8 16.9 11.0 57 4.8 SSW 17 30 9 16 1014.5 1014.5 0.0
01/12:00pm 19.5 17.0 11.0 58 4.6 S 15 28 8 15 1014.3 1014.3 0.0
01/11:30am 20.4 19.1 12.6 61 4.4 SSW 11 26 6 14 1013.8 1013.8 0.0
01/11:00am 18.6 17.8 12.8 69 3.3 SSW 9 17 5 9 1013.3 1013.3 0.0
01/10:30am 19.1 18.1 14.6 75 2.6 SSW 13 24 7 13 1013.0 1013.0 0.0
01/10:00am 18.2 17.6 13.5 74 2.7 SW 9 17 5 9 1012.6 1012.6 0.0
01/09:30am 17.2 17.0 13.5 79 2.1 WSW 7 17 4 9 1012.1 1012.1 0.0
01/09:00am 15.9 15.0 12.5 80 1.9 WSW 9 17 5 9 1011.7 1011.7 15.8
01/08:30am 15.6 14.7 12.5 82 1.7 W 9 17 5 9 1011.2 1011.2 15.8
01/08:00am 15.3 14.4 12.6 84 1.5 W 9 20 5 11 1010.7 1010.7 15.8
01/07:30am 15.3 14.4 12.6 84 1.5 W 9 15 5 8 1010.2 1010.2 15.8
01/07:00am 15.6 14.7 12.7 83 1.6 WSW 9 15 5 8 1009.6 1009.6 15.8
01/06:30am 15.8 14.6 12.7 82 1.7 W 11 17 6 9 1009.1 1009.1 15.8
01/06:00am 16.0 15.8 13.1 83 1.6 W 6 13 3 7 1008.7 1008.7 15.8
01/05:30am 16.2 15.2 13.3 83 1.6 W 11 17 6 9 1008.2 1008.2 15.8
01/05:00am 17.3 15.9 13.4 78 2.2 SW 13 26 7 14 1007.7 1007.7 15.8
01/04:30am 16.8 16.1 14.3 85 1.4 SSW 11 22 6 12 1007.1 1007.1 15.8
01/04:00am 16.6 16.2 15.1 91 0.9 SSW 11 24 6 13 1006.8 1006.8 15.8
01/03:30am 16.7 15.7 15.6 93 0.6 SW 15 30 8 16 1006.8 1006.8 15.6
01/03:00am 17.0 16.3 16.4 96 0.4 SSW 15 28 8 15 1006.3 1006.3 15.2
01/02:30am 17.5 17.9 17.3 99 0.1 SSW 11 24 6 13 1006.1 1006.1 15.0
01/02:00am 18.1 19.5 17.8 98 0.2 SSW 7 17 4 9 1005.9 1005.9 14.2
01/01:30am 18.6 19.4 18.1 97 0.3 SW 11 22 6 12 1005.8 1005.8 14.0
01/01:00am 19.2 21.6 18.9 98 0.2 W 4 9 2 5 1005.3 1005.3 13.4
01/12:30am 19.5 21.2 19.3 99 0.1 N 9 15 5 8 1005.7 1005.7 13.2
01/12:00am 19.4 21.1 19.4 100 0.0 N 9 13 5 7 1005.1 1005.1 13.2

Other Formats:

Comma delimited format used in spreadsheet applications
http://www.bom.gov.au/fwo/IDV60801/IDV60801.95936.axf

JavaScript Object Notation format (JSON) in row-major order
http://www.bom.gov.au/fwo/IDV60801/IDV60801.95936.json